Latest Weather Observations for Fitzroy Crossing

IDW60801

Issued at 2:04 am WST Sunday 11 December 2016 (issued every 30 minutes, with the page automatically refreshed every 10 minutes)

About weather observations | Map of weather stations | Latest weather observations for WA | Other Formats
Station Details ID: 003093 Name: FITZROY CROSSING AERO Lat: -18.18 Lon: 125.56 Height: 114.5 m
Data from the previous 72 hours. | See also: Recent months at Fitzroy Crossing
Date/Time
WST
Temp
°C
App
Temp
°C
Dew
Point
°C
Rel
Hum
%
Delta-T
°C
Wind Press
QNH
hPa
Press
MSL
hPa
Rain since
9am
mm
Dir  Spd
km/h
Gust
km/h
Spd
kts
Gust
kts
11/02:00am 25.3 26.7 21.8 81 2.3 W 17 17 9 9 1010.3 1009.4 -
11/01:30am 25.5 25.3 21.2 77 2.9 WNW 24 32 13 17 1010.3 1009.4 0.8
11/01:00am 26.2 27.3 21.2 74 3.3 WNW 17 22 9 12 1010.6 1009.7 0.8
11/12:30am 26.1 27.8 20.9 73 3.4 NW 13 17 7 9 1010.3 1009.4 0.8
11/12:00am 26.1 28.5 21.5 76 3.1 NNW 11 13 6 7 1009.9 1009.0 0.8
 
Date/Time
WST
Temp
°C
App
Temp
°C
Dew
Point
°C
Rel
Hum
%
Delta-T
°C
Wind Press
QNH
hPa
Press
MSL
hPa
Rain since
9am
mm
Dir  Spd
km/h
Gust
km/h
Spd
kts
Gust
kts
10/11:30pm 26.5 28.8 22.1 77 3.0 N 13 20 7 11 1010.3 1009.4 0.8
10/11:00pm 27.3 30.8 23.5 80 2.6 N 11 15 6 8 1010.7 1009.8 0.8
10/10:30pm 27.4 31.2 22.8 76 3.1 NE 7 19 4 10 1010.8 1009.9 0.8
10/10:00pm 28.0 32.2 22.5 72 3.7 SW 4 7 2 4 1010.2 1009.3 0.8
10/09:30pm 28.1 31.2 22.1 70 4.1 S 9 11 5 6 1009.9 1009.0 0.8
10/09:00pm 28.3 30.5 21.8 68 4.4 SSE 13 19 7 10 1009.5 1008.6 0.8
10/08:30pm 28.3 31.6 23.2 74 3.5 SSE 11 17 6 9 1009.5 1008.6 0.8
10/08:00pm 28.0 31.3 23.8 78 2.9 S 13 15 7 8 1009.3 1008.4 0.8
10/07:30pm 27.8 31.3 23.6 78 2.9 SSW 11 15 6 8 1008.8 1007.9 0.8
10/07:00pm 28.0 31.5 23.6 77 3.0 SSE 11 15 6 8 1008.3 1007.3 0.8
10/06:30pm 27.6 30.4 23.0 76 3.1 SE 13 17 7 9 1008.3 1007.3 0.8
10/06:00pm 27.5 32.0 23.9 81 2.5 SSW 7 9 4 5 1007.9 1006.9 0.8
10/05:30pm 26.8 31.8 23.9 84 2.0 SW 4 7 2 4 1007.6 1006.6 0.6
10/05:00pm 25.7 29.4 23.2 86 1.7 SSW 9 20 5 11 1008.1 1007.1 0.6
10/04:30pm 25.7 25.2 22.2 81 2.4 NE 28 43 15 23 1008.0 1007.0 0.4
10/04:00pm 26.9 23.5 21.4 72 3.7 NE 41 69 22 37 1007.5 1006.5 0.0
10/03:59pm 27.2 23.3 21.2 69 4.0 NE 43 69 23 37 1007.5 1006.5 0.0
10/03:52pm 32.2 30.7 19.5 47 8.4 ENE 26 69 14 37 1007.1 1006.1 0.0
10/03:50pm 34.2 34.6 19.8 42 9.6 ENE 17 50 9 27 1006.9 1005.9 0.0
10/03:30pm 37.8 40.9 18.7 32 12.7 CALM 0 6 0 3 1006.2 1005.2 0.0
10/03:00pm 37.6 40.1 19.0 33 12.4 ESE 4 11 2 6 1006.6 1005.6 0.0
10/02:30pm 37.1 38.5 20.4 37 11.3 E 13 19 7 10 1007.0 1006.0 0.0
10/02:00pm 37.5 40.0 20.3 36 11.7 SE 7 13 4 7 1007.4 1006.4 0.0
10/01:30pm 36.8 39.2 20.1 37 11.2 ESE 7 17 4 9 1008.0 1007.0 0.0
10/01:00pm 35.9 37.4 19.8 39 10.8 NNE 11 22 6 12 1008.5 1007.6 0.0
10/12:30pm 35.9 37.6 20.2 40 10.6 E 11 17 6 9 1009.1 1008.2 0.0
10/12:00pm 35.3 37.9 21.2 44 9.6 NW 9 17 5 9 1009.6 1008.7 0.0
10/11:30am 34.6 37.3 21.3 46 9.0 N 9 17 5 9 1010.0 1009.1 0.0
10/11:00am 34.2 35.5 20.9 45 9.0 NNE 15 22 8 12 1010.5 1009.6 0.0
10/10:30am 33.1 35.0 20.6 47 8.4 N 11 19 6 10 1011.1 1010.2 0.0
10/10:00am 32.6 33.5 20.8 49 7.9 NE 17 24 9 13 1011.6 1010.7 0.0
10/09:30am 32.5 34.8 22.0 54 7.2 NE 13 24 7 13 1012.1 1011.2 0.0
10/09:00am 31.3 33.3 21.5 56 6.6 NE 13 24 7 13 1012.5 1011.6 10.0
10/08:30am 30.5 32.8 22.1 61 5.7 NNE 13 20 7 11 1012.7 1011.8 10.0
10/08:00am 29.5 33.2 23.2 69 4.3 NNE 9 15 5 8 1012.5 1011.6 10.0
10/07:30am 28.3 32.4 23.9 77 3.0 E 9 13 5 7 1012.4 1011.5 10.0
10/07:00am 27.9 32.1 24.1 80 2.6 ENE 9 13 5 7 1011.8 1010.9 10.0
10/06:30am 26.4 31.0 24.1 87 1.6 ENE 7 9 4 5 1011.7 1010.8 10.0
10/06:00am 25.8 29.6 23.5 87 1.6 E 9 17 5 9 1011.4 1010.5 10.0
10/05:30am 25.4 28.8 23.3 88 1.4 ESE 11 13 6 7 1010.7 1009.8 10.0
10/05:00am 25.0 28.9 23.6 92 1.0 SE 9 13 5 7 1010.1 1009.2 10.0
10/04:30am 25.0 28.8 23.4 91 1.1 ESE 9 13 5 7 1009.8 1008.9 10.0
10/04:00am 25.1 28.5 23.3 90 1.2 ESE 11 17 6 9 1009.5 1008.6 10.0
10/03:30am 25.3 29.1 23.5 90 1.2 E 9 13 5 7 1008.9 1008.0 10.0
10/03:00am 25.3 29.3 23.7 91 1.1 SE 9 13 5 7 1008.6 1007.7 10.0
10/02:30am 25.4 31.1 23.8 91 1.1 CALM 0 0 0 0 1008.6 1007.7 10.0
10/02:00am 25.3 30.8 23.4 89 1.3 CALM 0 0 0 0 1008.4 1007.5 10.0
10/01:30am 25.4 31.0 23.5 89 1.3 CALM 0 0 0 0 1008.5 1007.6 10.0
10/01:00am 25.4 31.0 23.6 90 1.2 CALM 0 0 0 0 1008.5 1007.6 10.0
10/12:30am 25.2 29.0 23.4 90 1.2 NNW 9 11 5 6 1008.9 1008.0 10.0
10/12:00am 25.3 28.5 23.7 91 1.1 N 13 15 7 8 1009.7 1008.8 10.0
 
Date/Time
WST
Temp
°C
App
Temp
°C
Dew
Point
°C
Rel
Hum
%
Delta-T
°C
Wind Press
QNH
hPa
Press
MSL
hPa
Rain since
9am
mm
Dir  Spd
km/h
Gust
km/h
Spd
kts
Gust
kts
09/11:30pm 25.3 28.2 23.9 92 1.0 N 15 20 8 11 1010.7 1009.8 10.0
09/11:00pm 25.2 28.3 23.6 91 1.1 NNE 13 20 7 11 1011.3 1010.4 9.6
09/10:30pm 25.3 28.4 24.1 93 0.8 N 15 20 8 11 1011.4 1010.5 8.8
09/10:00pm 25.0 28.1 23.6 92 1.0 NNE 13 19 7 10 1011.9 1011.0 8.2
09/09:30pm 25.2 28.1 23.8 92 1.0 N 15 20 8 11 1011.7 1010.8 7.0
09/09:00pm 25.0 27.3 23.4 91 1.1 NNW 17 24 9 13 1011.3 1010.4 5.8
09/08:30pm 25.7 27.2 23.0 85 1.8 N 20 28 11 15 1011.3 1010.4 0.2
09/08:00pm 26.9 28.4 22.7 78 2.9 N 19 26 10 14 1009.8 1008.9 0.0
09/07:30pm 27.3 28.4 22.0 73 3.6 N 19 26 10 14 1009.6 1008.7 0.0
09/07:00pm 28.6 29.3 21.6 66 4.7 ENE 20 30 11 16 1008.1 1007.1 0.0
09/06:30pm 27.9 28.4 21.9 70 4.0 ENE 22 30 12 16 1007.5 1006.5 0.0
09/06:02pm 30.1 28.5 20.1 55 6.6 NNE 28 46 15 25 1007.1 1006.1 0.0
09/06:00pm 30.2 28.0 19.6 53 7.0 NNE 30 46 16 25 1007.0 1006.0 0.0
09/05:53pm 31.1 29.1 19.1 48 7.9 NNE 28 46 15 25 1006.7 1005.7 0.0
09/05:30pm 32.2 32.5 19.5 47 8.4 ESE 17 24 9 13 1005.7 1004.7 0.0
09/05:00pm 33.1 31.7 19.6 45 9.0 SSE 26 35 14 19 1004.9 1003.9 0.0
09/04:30pm 36.0 36.0 19.0 36 11.3 SW 17 24 9 13 1004.3 1003.4 0.0
09/04:00pm 36.7 37.7 18.7 34 11.9 W 11 15 6 8 1004.0 1003.1 0.0
09/03:30pm 36.9 39.7 18.0 33 12.4 CALM 0 7 0 4 1003.5 1002.6 0.0
09/03:00pm 35.7 36.2 18.3 35 11.4 NW 13 19 7 10 1003.6 1002.7 0.0
09/02:30pm 34.6 33.1 17.8 37 10.9 WNW 22 28 12 15 1004.3 1003.4 0.0
09/02:07pm 34.8 30.4 16.6 33 11.6 N 35 54 19 29 1004.8 1003.8 0.0
09/02:00pm 33.7 31.2 17.0 37 10.7 NNE 26 54 14 29 1004.9 1003.9 0.0
09/01:59pm 34.0 31.8 16.8 35 11.0 NNE 24 54 13 29 1004.9 1003.9 0.0
09/01:30pm 39.5 38.1 17.0 26 14.7 ENE 20 33 11 18 1004.2 1003.3 0.0
09/01:00pm 41.9 41.5 17.2 24 16.3 ESE 15 30 8 16 1004.5 1003.6 0.0
09/12:30pm 41.4 39.9 15.4 22 16.7 E 17 24 9 13 1005.2 1004.2 0.0
09/12:00pm 40.3 39.1 17.1 25 15.2 NNE 19 30 10 16 1005.5 1004.5 0.0
09/11:30am 40.6 39.9 17.3 25 15.3 ENE 17 32 9 17 1005.9 1004.9 0.0
09/11:00am 40.0 39.1 16.8 25 15.1 ENE 17 24 9 13 1006.3 1005.3 0.0
09/10:30am 39.8 39.3 17.8 27 14.5 ENE 17 28 9 15 1006.8 1005.8 0.0
09/10:00am 38.8 38.8 18.1 29 13.7 E 15 30 8 16 1007.3 1006.3 0.0
09/09:30am 37.9 37.0 17.8 30 13.2 E 19 26 10 14 1007.8 1006.8 0.0
09/09:00am 37.6 37.0 17.6 31 13.1 E 17 24 9 13 1008.0 1007.0 0.0
09/08:30am 36.3 35.1 17.4 32 12.3 E 20 32 11 17 1008.2 1007.2 0.0
09/08:00am 34.7 34.6 17.9 37 10.9 SE 15 20 8 11 1008.1 1007.1 0.0
09/07:30am 33.4 33.0 17.1 37 10.4 ESE 15 20 8 11 1008.0 1007.0 0.0
09/07:00am 33.9 33.5 17.2 37 10.8 SE 15 20 8 11 1007.8 1006.8 0.0
09/06:30am 32.5 32.0 16.8 39 10.0 S 15 19 8 10 1007.9 1006.9 0.0
09/06:00am 30.8 30.8 17.1 43 8.7 SSW 13 15 7 8 1007.7 1006.7 0.0
09/05:30am 30.4 30.7 17.1 44 8.4 S 11 13 6 7 1007.7 1006.7 0.0
09/05:00am 30.2 30.1 16.9 44 8.4 SSW 13 17 7 9 1007.3 1006.3 0.0
09/04:30am 30.3 30.4 17.4 46 8.2 SSW 13 15 7 8 1007.2 1006.2 0.0
09/04:00am 30.0 32.1 18.1 49 7.7 SSW 4 11 2 6 1006.9 1005.9 0.0
09/03:30am 29.7 32.6 18.2 50 7.4 CALM 0 0 0 0 1006.8 1005.8 0.0
09/03:00am 29.7 32.3 17.5 48 7.8 CALM 0 0 0 0 1006.5 1005.5 0.0
09/02:30am 30.9 32.1 16.9 43 8.9 SSE 6 9 3 5 1006.2 1005.2 0.0
09/02:00am 30.8 33.4 17.5 45 8.5 CALM 0 0 0 0 1006.1 1005.1 0.0
09/01:30am 31.4 31.5 15.4 38 9.9 SE 9 13 5 7 1006.1 1005.1 0.0
09/01:00am 32.1 30.9 15.1 35 10.6 SE 15 20 8 11 1006.1 1005.1 0.0
09/12:30am 32.8 31.2 14.9 34 11.1 SE 17 24 9 13 1006.2 1005.2 0.0
09/12:00am 33.4 31.6 15.4 34 11.3 SE 19 26 10 14 1006.4 1005.4 0.0
 
Date/Time
WST
Temp
°C
App
Temp
°C
Dew
Point
°C
Rel
Hum
%
Delta-T
°C
Wind Press
QNH
hPa
Press
MSL
hPa
Rain since
9am
mm
Dir  Spd
km/h
Gust
km/h
Spd
kts
Gust
kts
08/11:30pm 33.7 32.7 15.7 34 11.3 SE 15 22 8 12 1006.3 1005.3 0.0
08/11:00pm 34.1 32.1 15.5 32 11.7 SE 20 32 11 17 1006.5 1005.5 0.0
08/10:30pm 34.7 32.0 15.6 32 12.0 SE 24 35 13 19 1006.8 1005.8 0.0
08/10:00pm 35.1 33.3 15.4 30 12.4 SE 19 26 10 14 1007.3 1006.3 0.0
08/09:30pm 35.5 32.7 15.3 30 12.7 SSE 24 33 13 18 1006.7 1005.7 0.0
08/09:00pm 35.6 33.5 15.3 29 12.8 SSE 20 28 11 15 1006.3 1005.3 0.0
08/08:30pm 35.4 35.0 16.2 32 12.2 S 13 20 7 11 1006.0 1005.0 0.0
08/08:00pm 35.5 35.5 16.3 32 12.3 SSE 11 15 6 8 1005.7 1004.7 0.0
08/07:30pm 35.7 36.3 16.9 32 12.1 SSE 9 11 5 6 1005.4 1004.4 0.0
08/07:00pm 36.3 36.2 15.9 29 13.0 SE 11 17 6 9 1005.1 1004.1 0.0
08/06:30pm 37.5 36.8 15.3 26 14.1 S 13 22 7 12 1004.6 1003.7 0.0
08/06:00pm 38.2 37.5 15.3 25 14.6 SSE 13 20 7 11 1004.2 1003.3 0.0
08/05:30pm 39.3 37.4 14.3 22 15.7 SE 17 22 9 12 1003.7 1002.8 0.0
08/05:00pm 40.6 38.6 14.0 21 16.8 ESE 17 28 9 15 1003.3 1002.4 0.0
08/04:30pm 40.7 39.2 14.1 21 16.7 SSE 15 24 8 13 1003.0 1002.1 0.0
08/04:00pm 41.2 39.0 14.5 21 17.0 SE 19 26 10 14 1003.0 1002.1 0.0
08/03:30pm 41.4 39.8 13.9 20 17.3 ESE 15 24 8 13 1003.1 1002.2 0.0
08/03:00pm 41.7 39.5 14.9 21 17.2 ESE 20 35 11 19 1003.3 1002.4 0.0
08/02:30pm 41.8 40.6 15.0 21 17.1 E 15 28 8 15 1003.6 1002.7 0.0
08/02:00pm 41.2 40.1 15.2 21 16.7 ESE 15 26 8 14 1004.1 1003.2 0.0
08/01:30pm 41.2 41.1 15.9 22 16.3 SE 11 24 6 13 1004.3 1003.4 0.0
08/01:00pm 41.0 39.7 15.7 22 16.3 SE 17 33 9 18 1005.0 1004.0 0.0
08/12:30pm 40.5 39.3 16.0 24 15.8 SSE 17 24 9 13 1005.5 1004.5 0.0
08/12:00pm 39.5 37.8 15.8 24 15.2 SE 19 30 10 16 1006.0 1005.0 0.0
08/11:30am 39.4 37.7 16.3 25 14.9 ESE 20 28 11 15 1006.4 1005.4 0.0
08/11:00am 38.7 36.3 16.3 26 14.5 ESE 24 33 13 18 1006.8 1005.8 0.0
08/10:30am 38.9 37.3 16.5 26 14.5 ESE 20 32 11 17 1007.4 1006.4 0.0
08/10:00am 37.7 35.2 16.1 28 13.9 SE 24 33 13 18 1007.9 1006.9 0.0
08/09:30am 36.6 35.1 16.2 29 13.0 ESE 19 30 10 16 1008.3 1007.3 0.0
08/09:00am 36.0 34.1 16.7 31 12.4 ESE 22 33 12 18 1008.6 1007.7 0.0
08/08:30am 34.6 33.0 16.4 33 11.6 ESE 20 28 11 15 1008.8 1007.9 0.0
08/08:00am 33.9 32.0 16.7 35 11.0 ESE 22 30 12 16 1008.9 1008.0 0.0
08/07:30am 33.1 32.7 18.1 41 9.7 ESE 17 22 9 12 1009.0 1008.1 0.0
08/07:00am 32.1 33.0 18.3 44 9.0 ESE 11 15 6 8 1008.8 1007.9 0.0
08/06:30am 30.6 32.0 19.6 51 7.2 SSE 11 17 6 9 1008.8 1007.9 0.0
08/06:00am 29.2 30.6 19.5 56 6.4 SSE 11 17 6 9 1008.5 1007.6 0.0
08/05:30am 27.8 29.7 19.8 61 5.2 S 9 11 5 6 1008.2 1007.2 0.0
08/05:00am 27.4 28.9 19.7 63 5.0 S 11 13 6 7 1007.9 1006.9 0.0
08/04:30am 27.5 29.4 19.8 63 5.0 S 9 11 5 6 1007.6 1006.6 0.0
08/04:00am 27.6 29.6 19.9 63 5.1 S 9 11 5 6 1007.3 1006.3 0.0
08/03:30am 27.2 29.6 20.8 68 4.2 SSW 9 11 5 6 1007.2 1006.2 0.0
08/03:00am 28.1 29.9 19.6 60 5.6 S 9 11 5 6 1007.3 1006.3 0.0
08/02:30am 28.3 29.7 19.5 59 5.7 S 11 11 6 6 1007.0 1006.0 0.0

Other Formats:

Comma delimited format used in spreadsheet applications
http://www.bom.gov.au/fwo/IDW60801/IDW60801.94206.axf

JavaScript Object Notation format (JSON) in row-major order
http://www.bom.gov.au/fwo/IDW60801/IDW60801.94206.json